Time;durP1;ratioP1;P1;durP2;ratioP2;P2;SDS_P1;SDS_P2;PMS_P1;PMS_P2;Temp;Humidity;BMP_temperature;BMP_pressure;BME280_temperature;BME280_humidity;BME280_pressure;Samples;Min_cycle;Max_cycle;Signal;HPM_P1;HPM_P2
2021/03/13 00:00:01;;;;;;;27.23;4.82;;;4.50;99.90;;;;;;5136088;27;20043;-60
2021/03/13 00:02:26;;;;;;;32.72;5.30;;;4.50;99.90;;;;;;5135831;27;20043;-60
2021/03/13 00:04:52;;;;;;;33.90;4.70;;;4.50;99.90;;;;;;5136116;27;20082;-60
2021/03/13 00:07:18;;;;;;;33.60;4.05;;;4.50;99.90;;;;;;5135995;27;20043;-60
2021/03/13 00:09:45;;;;;;;23.73;4.40;;;4.60;99.90;;;;;;5135829;27;20041;-60
2021/03/13 00:12:11;;;;;;;34.03;5.97;;;4.60;99.90;;;;;;5135973;27;20061;-60
2021/03/13 00:14:37;;;;;;;28.45;4.95;;;4.70;99.90;;;;;;5135478;27;20476;-60
2021/03/13 00:17:03;;;;;;;34.50;5.13;;;4.70;99.90;;;;;;5135536;27;20043;-60
2021/03/13 00:19:28;;;;;;;25.33;5.38;;;4.70;99.90;;;;;;5135554;27;20027;-60
2021/03/13 00:21:54;;;;;;;29.40;4.90;;;4.70;99.90;;;;;;5135649;27;20046;-60
2021/03/13 00:24:20;;;;;;;33.55;5.05;;;4.80;99.90;;;;;;5135676;27;20047;-59
2021/03/13 00:26:46;;;;;;;38.80;5.50;;;4.80;99.90;;;;;;5135100;27;20043;-59
2021/03/13 00:29:11;;;;;;;31.52;4.40;;;4.80;99.90;;;;;;5135454;27;20128;-60
2021/03/13 00:31:37;;;;;;;30.75;4.68;;;4.80;99.90;;;;;;5135214;27;20393;-59
2021/03/13 00:34:03;;;;;;;37.92;5.65;;;4.80;99.90;;;;;;5135304;27;20078;-59
2021/03/13 00:36:28;;;;;;;35.65;5.00;;;4.90;99.90;;;;;;5135307;27;20405;-59
2021/03/13 00:38:54;;;;;;;33.63;4.75;;;4.90;99.90;;;;;;5135301;27;20090;-60
2021/03/13 00:41:20;;;;;;;25.17;5.57;;;5.00;99.90;;;;;;5135253;27;20122;-60
2021/03/13 00:43:45;;;;;;;33.78;5.05;;;5.00;99.90;;;;;;5135509;27;20103;-60
2021/03/13 00:46:11;;;;;;;34.33;5.15;;;5.00;99.90;;;;;;5135016;27;20473;-59
2021/03/13 00:48:37;;;;;;;27.80;5.20;;;5.00;99.90;;;;;;5135345;27;20139;-60
2021/03/13 00:51:02;;;;;;;21.38;4.40;;;5.00;99.90;;;;;;5135708;27;20139;-60
2021/03/13 00:53:28;;;;;;;28.98;4.75;;;5.00;99.90;;;;;;5134466;27;20051;-59
2021/03/13 00:55:54;;;;;;;24.40;4.93;;;5.00;99.90;;;;;;5134938;27;20091;-60
2021/03/13 00:58:20;;;;;;;34.33;4.50;;;5.00;99.90;;;;;;5134650;27;20393;-60
2021/03/13 01:00:45;;;;;;;28.35;5.07;;;5.00;99.90;;;;;;5134682;27;20039;-60
2021/03/13 01:03:11;;;;;;;27.20;4.82;;;5.00;99.90;;;;;;5134926;27;20047;-59
2021/03/13 01:05:37;;;;;;;32.20;3.72;;;5.00;99.90;;;;;;5134824;27;20488;-60
2021/03/13 01:08:06;;;;;;;26.63;3.58;;;5.10;99.90;;;;;;5134715;27;20093;-60
2021/03/13 01:10:38;;;;;;;21.20;4.10;;;5.10;99.90;;;;;;5135011;27;20446;-60
2021/03/13 01:13:05;;;;;;;26.52;4.03;;;5.10;99.90;;;;;;5134491;27;20039;-59
2021/03/13 01:15:31;;;;;;;22.23;4.40;;;5.00;99.90;;;;;;5134732;27;20042;-59
2021/03/13 01:17:58;;;;;;;21.67;3.47;;;5.00;99.90;;;;;;5134613;27;20088;-60
2021/03/13 01:20:24;;;;;;;24.95;3.92;;;5.00;99.90;;;;;;5134377;27;20110;-60
2021/03/13 01:22:51;;;;;;;25.40;3.60;;;5.10;99.90;;;;;;5134450;27;20070;-59
2021/03/13 01:25:17;;;;;;;21.90;3.88;;;5.10;99.90;;;;;;5134251;27;20041;-60
2021/03/13 01:27:45;;;;;;;26.27;4.20;;;5.00;99.90;;;;;;5134160;27;20043;-59
2021/03/13 01:30:16;;;;;;;24.77;4.22;;;5.10;99.90;;;;;;5134171;27;20043;-60
2021/03/13 01:32:43;;;;;;;28.27;4.55;;;5.10;99.90;;;;;;5134438;27;20035;-59
2021/03/13 01:35:09;;;;;;;22.20;4.38;;;5.10;99.90;;;;;;5134305;27;20407;-60
2021/03/13 01:37:35;;;;;;;21.35;4.38;;;5.20;99.90;;;;;;5133799;27;20039;-60
2021/03/13 01:40:04;;;;;;;25.00;4.47;;;5.10;99.90;;;;;;5134256;27;20040;-59
2021/03/13 01:42:29;;;;;;;21.40;4.10;;;5.20;99.90;;;;;;5134061;27;20121;-59
2021/03/13 01:44:55;;;;;;;20.92;5.82;;;5.20;99.90;;;;;;5134107;27;20043;-59
2021/03/13 01:47:23;;;;;;;21.88;5.15;;;5.20;99.90;;;;;;5133876;27;20039;-59
2021/03/13 01:49:52;;;;;;;27.58;5.05;;;5.20;99.90;;;;;;5133951;27;20043;-60
2021/03/13 01:52:19;;;;;;;33.45;6.00;;;5.20;99.90;;;;;;5133991;27;20039;-60
2021/03/13 01:54:46;;;;;;;22.38;5.55;;;5.30;99.90;;;;;;5133878;27;20043;-60
2021/03/13 01:57:12;;;;;;;27.17;5.45;;;5.30;99.90;;;;;;5133944;27;20070;-60
2021/03/13 01:59:38;;;;;;;26.30;6.18;;;5.40;99.90;;;;;;5133901;27;20050;-59
2021/03/13 02:02:08;;;;;;;32.55;6.18;;;5.40;99.90;;;;;;5133807;27;20035;-59
2021/03/13 02:04:36;;;;;;;35.25;6.38;;;5.40;99.90;;;;;;5133757;27;20047;-60
2021/03/13 02:07:05;;;;;;;39.42;6.10;;;5.40;99.90;;;;;;5133616;27;20132;-60
2021/03/13 02:09:47;;;;;;;33.03;6.10;;;5.50;99.90;;;;;;5133623;27;20055;-60
2021/03/13 02:12:42;;;;;;;26.08;6.28;;;5.50;99.90;;;;;;5133648;27;20051;-60
2021/03/13 02:15:17;;;;;;;28.00;6.88;;;5.50;99.90;;;;;;5133445;27;20039;-60
2021/03/13 02:17:58;;;;;;;38.20;7.45;;;5.50;99.90;;;;;;5133544;27;20400;-59
2021/03/13 02:20:53;;;;;;;31.63;6.90;;;5.60;99.90;;;;;;5132208;27;20085;-60
2021/03/13 02:23:20;;;;;;;28.27;6.72;;;5.60;99.90;;;;;;5133252;27;20085;-60
2021/03/13 02:26:14;;;;;;;28.25;6.32;;;5.70;99.90;;;;;;5133089;27;20035;-60
2021/03/13 02:29:24;;;;;;;22.40;6.63;;;5.70;99.90;;;;;;5133373;27;20039;-60
2021/03/13 02:31:54;;;;;;;25.88;7.78;;;5.80;99.90;;;;;;5069692;28;20453;-60
2021/03/13 02:34:26;;;;;;;24.13;6.88;;;5.80;99.90;;;;;;5069860;28;20071;-60
2021/03/13 02:36:54;;;;;;;26.70;6.32;;;5.80;99.90;;;;;;5069823;28;20044;-60
2021/03/13 02:39:22;;;;;;;33.70;7.00;;;5.80;99.90;;;;;;5069693;28;20415;-60
2021/03/13 02:41:51;;;;;;;20.85;6.55;;;5.80;99.90;;;;;;5069535;28;20048;-60
2021/03/13 02:44:18;;;;;;;;;;;5.80;99.90;;;;;;5070035;28;20044;-60
2021/03/13 02:46:47;;;;;;;22.25;6.82;;;5.80;99.90;;;;;;5069640;28;19916;-60
2021/03/13 02:49:13;;;;;;;;;;;5.90;99.90;;;;;;5069702;28;20052;-60
2021/03/13 02:51:40;;;;;;;29.92;6.47;;;5.90;99.90;;;;;;5069486;28;19917;-60
2021/03/13 02:54:07;;;;;;;22.63;5.65;;;5.90;99.90;;;;;;5069240;28;20098;-60
2021/03/13 02:56:35;;;;;;;26.13;6.82;;;6.00;99.90;;;;;;5069488;28;20094;-61
2021/03/13 02:59:02;;;;;;;26.33;6.47;;;6.00;99.90;;;;;;5069585;28;20131;-60
2021/03/13 03:01:29;;;;;;;21.45;6.47;;;6.00;99.90;;;;;;5069378;28;20148;-60
2021/03/13 03:03:57;;;;;;;24.13;5.97;;;6.00;99.90;;;;;;5069336;28;20040;-60
2021/03/13 03:06:25;;;;;;;18.73;5.17;;;6.00;99.90;;;;;;5069428;28;20044;-60
2021/03/13 03:08:51;;;;;;;20.40;5.80;;;6.00;99.90;;;;;;5112524;28;20605;-60
2021/03/13 03:11:23;;;;;;;28.55;7.00;;;6.00;99.90;;;;;;5132545;27;20488;-60
2021/03/13 03:13:52;;;;;;;27.13;5.35;;;6.00;99.90;;;;;;5132741;27;20066;-60
2021/03/13 03:16:20;;;;;;;22.20;5.95;;;6.00;99.90;;;;;;5132589;27;20477;-60
2021/03/13 03:18:48;;;;;;;21.92;4.88;;;6.00;99.90;;;;;;5132935;27;20491;-60
2021/03/13 03:21:18;;;;;;;18.90;5.50;;;6.00;99.90;;;;;;5132771;27;20039;-60
2021/03/13 03:23:45;;;;;;;22.65;5.47;;;6.10;99.90;;;;;;5132617;27;20053;-61
2021/03/13 03:26:11;;;;;;;14.52;5.20;;;6.10;99.90;;;;;;5130705;28;20496;-60
2021/03/13 03:28:37;;;;;;;20.08;5.63;;;6.10;99.90;;;;;;5132431;27;20115;-60
2021/03/13 03:31:03;;;;;;;25.27;5.97;;;6.00;99.90;;;;;;5132233;28;20043;-60
2021/03/13 03:33:29;;;;;;;20.98;5.45;;;6.00;99.90;;;;;;5132664;28;20042;-60
2021/03/13 03:35:54;;;;;;;24.65;6.07;;;5.90;99.90;;;;;;5132773;28;20511;-60
2021/03/13 03:38:21;;;;;;;20.25;5.93;;;5.90;99.90;;;;;;5132549;28;20047;-60
2021/03/13 03:40:47;;;;;;;24.55;5.43;;;5.80;99.90;;;;;;5132539;27;20444;-61
2021/03/13 03:43:13;;;;;;;19.65;5.80;;;5.80;99.90;;;;;;5132398;27;20132;-60
2021/03/13 03:45:41;;;;;;;23.08;5.63;;;5.80;99.90;;;;;;5132541;28;20047;-61
2021/03/13 03:48:10;;;;;;;18.88;5.18;;;5.80;99.90;;;;;;5132613;27;20046;-60
2021/03/13 03:50:36;;;;;;;16.50;5.50;;;5.80;99.90;;;;;;5132422;27;20072;-60
2021/03/13 03:53:04;;;;;;;21.65;5.43;;;5.80;99.90;;;;;;5132510;27;20055;-60
2021/03/13 03:55:31;;;;;;;17.42;5.20;;;5.80;99.90;;;;;;5132439;27;20042;-60
2021/03/13 03:57:58;;;;;;;13.95;4.82;;;5.80;99.90;;;;;;5131114;28;20396;-60
2021/03/13 04:00:25;;;;;;;14.68;5.35;;;5.80;99.90;;;;;;5133542;27;20035;-61
2021/03/13 04:02:55;;;;;;;20.30;5.93;;;5.80;99.90;;;;;;5136410;27;20050;-60
2021/03/13 04:05:20;;;;;;;14.68;5.22;;;5.80;99.90;;;;;;5136076;27;20039;-60
2021/03/13 04:07:48;;;;;;;11.65;4.13;;;5.80;99.90;;;;;;5136119;27;20046;-59
2021/03/13 04:10:15;;;;;;;12.93;4.28;;;5.80;99.90;;;;;;5136367;27;20082;-61
2021/03/13 04:12:42;;;;;;;22.00;5.63;;;5.80;99.90;;;;;;5136072;27;20123;-60
2021/03/13 04:15:10;;;;;;;6.63;2.50;;;5.80;99.90;;;;;;5136149;27;20046;-60
2021/03/13 04:17:37;;;;;;;5.93;2.88;;;5.70;99.90;;;;;;5135843;27;20061;-60
2021/03/13 04:20:08;;;;;;;8.45;3.45;;;5.70;99.90;;;;;;5136166;27;20058;-60
2021/03/13 04:22:35;;;;;;;6.70;2.60;;;5.60;99.90;;;;;;5135779;27;20043;-61
2021/03/13 04:25:04;;;;;;;6.60;2.50;;;5.60;99.90;;;;;;5135962;27;20039;-60
2021/03/13 04:27:29;;;;;;;;;;;5.60;99.90;;;;;;5135139;27;20064;-61
2021/03/13 04:29:55;;;;;;;7.97;2.70;;;5.60;99.90;;;;;;5135806;27;19916;-61
2021/03/13 04:32:23;;;;;;;6.50;2.90;;;5.60;99.90;;;;;;5135725;27;20400;-60
2021/03/13 04:34:50;;;;;;;6.00;2.58;;;5.50;99.90;;;;;;5135449;27;20031;-61
2021/03/13 04:37:17;;;;;;;6.82;2.33;;;5.50;99.90;;;;;;5135471;27;20101;-61
2021/03/13 04:39:44;;;;;;;4.05;1.95;;;5.40;99.90;;;;;;5135494;27;20043;-60
2021/03/13 04:42:11;;;;;;;3.85;1.85;;;5.40;99.90;;;;;;5135773;27;20066;-60
2021/03/13 04:44:38;;;;;;;5.28;2.50;;;5.30;99.90;;;;;;5135548;27;20047;-60
2021/03/13 04:47:04;;;;;;;6.07;2.05;;;5.40;99.90;;;;;;5135524;27;20051;-60
2021/03/13 04:49:30;;;;;;;6.55;2.05;;;5.40;99.90;;;;;;5135604;27;20043;-60
2021/03/13 04:52:00;;;;;;;4.10;1.75;;;5.40;99.90;;;;;;5135196;27;20039;-60
2021/03/13 04:54:29;;;;;;;3.78;1.73;;;5.50;99.90;;;;;;5134834;27;20496;-60
2021/03/13 04:56:55;;;;;;;3.80;1.83;;;5.40;99.90;;;;;;5135259;27;20492;-60
2021/03/13 04:59:21;;;;;;;4.32;2.05;;;5.40;99.90;;;;;;5135463;27;20068;-60
2021/03/13 05:01:47;;;;;;;3.00;2.00;;;5.40;99.90;;;;;;5135284;27;20039;-60
2021/03/13 05:04:13;;;;;;;4.13;1.63;;;5.40;99.90;;;;;;5135029;27;20047;-59
2021/03/13 05:06:39;;;;;;;3.25;1.95;;;5.40;99.90;;;;;;5135286;27;20039;-60
2021/03/13 05:09:05;;;;;;;5.40;2.40;;;5.40;99.90;;;;;;5135313;27;20039;-59
2021/03/13 05:11:32;;;;;;;5.32;2.10;;;5.50;99.90;;;;;;5134827;27;20042;-60
2021/03/13 05:14:01;;;;;;;6.35;3.15;;;5.40;99.90;;;;;;5134744;27;20044;-60
2021/03/13 05:16:27;;;;;;;5.70;2.60;;;5.50;99.90;;;;;;5134738;27;20043;-59
2021/03/13 05:18:53;;;;;;;9.00;2.95;;;5.50;99.90;;;;;;5135069;27;20129;-59
2021/03/13 05:21:18;;;;;;;6.82;2.58;;;5.50;99.90;;;;;;5134566;27;20459;-60
2021/03/13 05:23:44;;;;;;;5.60;2.63;;;5.50;99.90;;;;;;5134612;27;20043;-59
2021/03/13 05:26:10;;;;;;;8.40;3.03;;;5.50;99.90;;;;;;5135176;27;20058;-60
2021/03/13 05:28:35;;;;;;;4.60;2.60;;;5.60;99.90;;;;;;5133256;27;20055;-59
2021/03/13 05:31:01;;;;;;;7.50;2.42;;;5.60;99.90;;;;;;5134798;27;20058;-60
2021/03/13 05:33:27;;;;;;;7.75;2.88;;;5.60;99.90;;;;;;5134383;27;20464;-59
2021/03/13 05:35:53;;;;;;;5.55;2.90;;;5.60;99.90;;;;;;5134378;27;20047;-60
2021/03/13 05:38:20;;;;;;;5.57;2.95;;;5.70;99.90;;;;;;5133160;27;20106;-59
2021/03/13 05:40:47;;;;;;;4.95;2.58;;;5.70;99.90;;;;;;5134310;27;20035;-60
2021/03/13 05:43:14;;;;;;;6.97;2.65;;;5.70;99.90;;;;;;5134425;27;20043;-60
2021/03/13 05:45:41;;;;;;;4.00;2.20;;;5.80;99.90;;;;;;5134210;27;20130;-60
2021/03/13 05:48:09;;;;;;;3.75;2.80;;;5.80;99.90;;;;;;5134351;27;20077;-60
2021/03/13 05:50:36;;;;;;;5.47;2.97;;;5.80;99.90;;;;;;5134083;27;20066;-60
2021/03/13 05:53:05;;;;;;;6.32;2.97;;;5.90;99.90;;;;;;5133754;27;20504;-59
2021/03/13 05:55:31;;;;;;;6.28;2.83;;;5.90;99.90;;;;;;5134220;27;20043;-60
2021/03/13 05:57:57;;;;;;;5.47;2.40;;;5.90;99.90;;;;;;5133829;27;20472;-59
2021/03/13 06:00:23;;;;;;;7.40;3.25;;;5.90;99.90;;;;;;5134123;27;20047;-60
2021/03/13 06:02:50;;;;;;;3.92;2.53;;;5.90;99.90;;;;;;5133891;27;20043;-60
2021/03/13 06:05:16;;;;;;;4.50;2.88;;;6.00;99.90;;;;;;5133627;27;20569;-60
2021/03/13 06:07:43;;;;;;;4.40;2.50;;;6.10;99.90;;;;;;5134092;27;20122;-59
2021/03/13 06:10:13;;;;;;;5.45;3.25;;;6.10;99.90;;;;;;5133704;27;20039;-59
2021/03/13 06:12:38;;;;;;;4.53;2.55;;;6.10;99.90;;;;;;5133541;27;20537;-59
2021/03/13 06:15:06;;;;;;;4.47;2.20;;;6.10;99.90;;;;;;5133439;27;20043;-59
2021/03/13 06:17:54;;;;;;;3.35;2.17;;;6.10;99.90;;;;;;5133910;27;20110;-59
2021/03/13 06:20:47;;;;;;;5.55;2.83;;;6.20;99.90;;;;;;5133750;27;20472;-60
2021/03/13 06:23:15;;;;;;;8.07;3.03;;;6.20;99.90;;;;;;5130323;27;20127;-59
2021/03/13 06:25:42;;;;;;;3.63;2.38;;;6.30;99.90;;;;;;5133670;27;20057;-59
2021/03/13 06:28:07;;;;;;;3.08;1.90;;;6.40;99.90;;;;;;5133627;27;20428;-59
2021/03/13 06:30:50;;;;;;;8.75;2.33;;;6.40;99.90;;;;;;5134298;27;20046;-59
2021/03/13 06:33:26;;;;;;;2.42;1.77;;;6.40;99.90;;;;;;5133217;27;20536;-59
2021/03/13 06:35:54;;;;;;;3.13;2.08;;;6.40;99.90;;;;;;5133655;27;20067;-60
2021/03/13 06:38:26;;;;;;;3.20;2.00;;;6.40;99.90;;;;;;5133270;27;20039;-59
2021/03/13 06:40:54;;;;;;;7.30;2.28;;;6.50;99.90;;;;;;5133278;27;20059;-59
2021/03/13 06:43:23;;;;;;;4.57;2.05;;;6.50;99.90;;;;;;5133327;27;20037;-59
2021/03/13 06:45:55;;;;;;;2.63;1.45;;;6.50;99.90;;;;;;5133230;27;20038;-60
2021/03/13 06:48:34;;;;;;;6.15;1.45;;;6.50;99.90;;;;;;5133704;27;20138;-60
2021/03/13 06:51:22;;;;;;;5.90;1.88;;;6.60;99.90;;;;;;5133412;27;20106;-59
2021/03/13 06:54:02;;;;;;;3.45;1.70;;;6.60;99.90;;;;;;5133186;27;20055;-60
2021/03/13 06:56:29;;;;;;;4.85;1.48;;;6.50;99.90;;;;;;5133352;27;20671;-59
2021/03/13 06:58:56;;;;;;;2.28;1.27;;;6.50;99.90;;;;;;5133476;27;20503;-60
2021/03/13 07:01:31;;;;;;;5.05;1.65;;;6.40;99.90;;;;;;5133813;27;20047;-60
2021/03/13 07:03:58;;;;;;;6.20;1.52;;;6.40;99.90;;;;;;5133444;27;20047;-60
2021/03/13 07:06:25;;;;;;;7.25;1.77;;;6.40;99.90;;;;;;5133246;27;20043;-60
2021/03/13 07:08:53;;;;;;;5.30;2.17;;;6.30;99.90;;;;;;5133225;27;20031;-59
2021/03/13 07:11:24;;;;;;;7.15;1.45;;;6.30;99.90;;;;;;5133074;28;20031;-60
2021/03/13 07:13:55;;;;;;;3.97;1.10;;;6.30;99.90;;;;;;5132735;27;20043;-60
2021/03/13 07:16:21;;;;;;;4.55;1.25;;;5.90;99.90;;;;;;5133101;27;20058;-60
2021/03/13 07:18:48;;;;;;;3.88;0.82;;;5.80;99.90;;;;;;5132916;27;20043;-60
2021/03/13 07:21:14;;;;;;;1.05;0.43;;;5.90;99.90;;;;;;5133151;27;20104;-59
2021/03/13 07:23:42;;;;;;;2.80;0.80;;;5.70;99.90;;;;;;5133221;27;20047;-59
2021/03/13 07:26:09;;;;;;;4.68;1.15;;;5.60;99.90;;;;;;5133173;27;20049;-59
2021/03/13 07:28:47;;;;;;;3.28;0.88;;;5.70;99.90;;;;;;5132948;27;20050;-60
2021/03/13 07:31:17;;;;;;;5.85;0.95;;;5.60;99.90;;;;;;5132924;27;20051;-59
2021/03/13 07:33:47;;;;;;;5.63;1.10;;;5.70;99.90;;;;;;5132868;27;20050;-60
2021/03/13 07:36:17;;;;;;;6.10;1.13;;;5.70;99.90;;;;;;5135346;27;20047;-58
2021/03/13 07:38:44;;;;;;;4.90;1.42;;;5.80;99.90;;;;;;5136456;27;20053;-59
2021/03/13 07:41:11;;;;;;;12.80;1.70;;;6.10;99.90;;;;;;5136483;27;20545;-59
2021/03/13 07:43:40;;;;;;;7.18;1.35;;;6.40;99.90;;;;;;5136481;27;20113;-59
2021/03/13 07:46:09;;;;;;;11.13;1.80;;;6.60;99.90;;;;;;5136342;27;20122;-60
2021/03/13 07:48:44;;;;;;;12.05;2.72;;;7.00;99.90;;;;;;5136765;27;20043;-60
2021/03/13 07:51:10;;;;;;;9.60;1.92;;;7.20;99.90;;;;;;5136469;27;20408;-60
2021/03/13 07:53:42;;;;;;;11.00;2.13;;;7.10;99.90;;;;;;5136164;27;20048;-60
2021/03/13 07:56:12;;;;;;;9.90;2.03;;;7.00;99.90;;;;;;5136687;27;20095;-60
2021/03/13 07:58:42;;;;;;;11.48;1.85;;;7.20;99.90;;;;;;5136679;27;20036;-59
2021/03/13 08:01:09;;;;;;;12.25;2.03;;;7.10;99.90;;;;;;5136392;27;20469;-59
2021/03/13 08:03:37;;;;;;;7.47;2.08;;;7.10;99.90;;;;;;5136522;27;20050;-59
2021/03/13 08:06:08;;;;;;;13.07;2.50;;;7.10;99.90;;;;;;5136180;27;20035;-59
2021/03/13 08:08:51;;;;;;;11.13;2.28;;;7.20;99.90;;;;;;5136530;27;20050;-60
2021/03/13 08:11:21;;;;;;;14.15;2.60;;;7.70;99.90;;;;;;5136393;27;20067;-60
2021/03/13 08:13:57;;;;;;;15.80;2.42;;;7.80;99.90;;;;;;5136351;27;20047;-60
2021/03/13 08:16:34;;;;;;;16.90;2.80;;;7.90;99.90;;;;;;5136160;27;20047;-59
2021/03/13 08:19:00;;;;;;;17.17;3.50;;;8.10;99.90;;;;;;5136352;27;20039;-59
2021/03/13 08:21:25;;;;;;;16.35;2.60;;;8.30;99.90;;;;;;5136052;27;20067;-59
2021/03/13 08:23:58;;;;;;;12.25;3.05;;;8.50;99.90;;;;;;5135895;27;20067;-60
2021/03/13 08:26:44;;;;;;;14.90;2.63;;;8.50;99.90;;;;;;5135840;27;20039;-60
2021/03/13 08:29:11;;;;;;;16.55;2.97;;;8.10;99.90;;;;;;5135991;27;20050;-60
2021/03/13 08:31:39;;;;;;;19.58;3.60;;;7.90;99.90;;;;;;5135974;27;20039;-60
2021/03/13 08:34:04;;;;;;;16.73;2.78;;;7.80;99.90;;;;;;5135808;27;20077;-60
2021/03/13 08:36:51;;;;;;;20.50;3.03;;;7.80;99.90;;;;;;5135651;27;20063;-60
2021/03/13 08:39:25;;;;;;;16.20;2.70;;;7.90;99.90;;;;;;5135676;27;20042;-61
2021/03/13 08:41:56;;;;;;;19.10;2.83;;;8.10;99.90;;;;;;5136078;27;20035;-60
2021/03/13 08:44:29;;;;;;;22.15;4.68;;;7.90;99.90;;;;;;5135574;27;20071;-60
2021/03/13 08:47:08;;;;;;;15.85;3.10;;;7.90;99.90;;;;;;5135626;27;20047;-59
2021/03/13 08:49:39;;;;;;;18.92;3.47;;;8.20;99.90;;;;;;5135272;27;20039;-59
2021/03/13 08:52:05;;;;;;;14.68;2.97;;;8.50;99.90;;;;;;5135330;27;20067;-60
2021/03/13 08:54:37;;;;;;;15.45;2.72;;;8.70;99.90;;;;;;5135028;27;20079;-60
2021/03/13 08:57:16;;;;;;;14.40;2.72;;;8.60;99.70;;;;;;5135276;27;20499;-60
2021/03/13 08:59:58;;;;;;;19.83;3.40;;;8.50;99.90;;;;;;5135317;27;20043;-59
2021/03/13 09:02:40;;;;;;;12.82;2.72;;;8.40;99.90;;;;;;5135046;27;20381;-61
2021/03/13 09:05:12;;;;;;;21.42;3.47;;;8.60;99.90;;;;;;5135103;27;20373;-60
2021/03/13 09:07:40;;;;;;;18.55;2.88;;;8.50;99.90;;;;;;5135096;27;20080;-61
2021/03/13 09:10:07;;;;;;;19.73;3.75;;;8.40;99.90;;;;;;5134991;27;20172;-60
2021/03/13 09:12:35;;;;;;;15.40;3.22;;;8.70;99.90;;;;;;5134682;27;20118;-61
2021/03/13 09:15:04;;;;;;;16.27;2.80;;;8.90;99.90;;;;;;5134779;27;20178;-62
2021/03/13 09:17:32;;;;;;;20.15;3.60;;;9.10;99.90;;;;;;5134169;27;20570;-60
2021/03/13 09:20:05;;;;;;;19.17;3.38;;;9.30;99.30;;;;;;5135232;27;20473;-62
2021/03/13 09:22:31;;;;;;;16.35;3.38;;;9.40;98.90;;;;;;5134831;27;20043;-61
2021/03/13 09:25:00;;;;;;;13.07;2.53;;;9.00;98.50;;;;;;5134891;27;20045;-60
2021/03/13 09:27:31;;;;;;;18.92;2.78;;;8.90;99.40;;;;;;5134775;27;20038;-61
2021/03/13 09:29:58;;;;;;;14.65;3.00;;;8.80;99.90;;;;;;5134113;27;20039;-60
2021/03/13 09:32:25;;;;;;;16.60;3.03;;;8.80;99.90;;;;;;5133897;27;20122;-62
2021/03/13 09:34:54;;;;;;;13.70;2.90;;;9.00;99.90;;;;;;5134465;27;20070;-61
2021/03/13 09:37:22;;;;;;;13.83;2.60;;;9.20;99.50;;;;;;5134446;27;20043;-61
2021/03/13 09:39:54;;;;;;;15.85;4.80;;;9.10;99.10;;;;;;5134577;27;20665;-60
2021/03/13 09:42:25;;;;;;;17.88;3.35;;;9.10;98.50;;;;;;5134281;27;20031;-60
2021/03/13 09:44:53;;;;;;;12.75;3.20;;;9.00;98.70;;;;;;5134635;27;20062;-60
2021/03/13 09:47:32;;;;;;;18.90;3.13;;;9.00;98.30;;;;;;5134585;27;20046;-61
2021/03/13 09:50:00;;;;;;;11.07;3.38;;;9.00;99.30;;;;;;5134329;27;20047;-60
2021/03/13 09:52:34;;;;;;;23.92;3.40;;;8.80;99.10;;;;;;5134389;27;20035;-60
2021/03/13 09:55:02;;;;;;;14.85;3.55;;;8.60;98.40;;;;;;5134042;27;20051;-61
2021/03/13 09:57:28;;;;;;;22.92;2.95;;;8.60;98.20;;;;;;5133914;27;20092;-60
2021/03/13 09:59:54;;;;;;;15.13;3.22;;;8.60;97.70;;;;;;5133755;27;20039;-61
2021/03/13 10:02:21;;;;;;;15.13;3.13;;;8.50;98.20;;;;;;5134562;27;20082;-60
2021/03/13 10:04:53;;;;;;;24.40;3.83;;;8.50;98.80;;;;;;5134165;27;20047;-61
2021/03/13 10:07:19;;;;;;;23.55;2.53;;;8.30;97.00;;;;;;5134332;27;20047;-62
2021/03/13 10:09:57;;;;;;;19.50;2.67;;;8.20;95.60;;;;;;5134061;27;20088;-60
2021/03/13 10:12:35;;;;;;;10.43;2.25;;;8.00;96.40;;;;;;5133965;27;20051;-60
2021/03/13 10:15:36;;;;;;;15.07;3.58;;;8.30;99.10;;;;;;5134046;27;20059;-60
2021/03/13 10:18:09;;;;;;;14.15;3.35;;;8.70;98.20;;;;;;5070610;28;20495;-60
2021/03/13 10:20:38;;;;;;;16.88;3.33;;;9.00;98.90;;;;;;5070293;28;20155;-61
2021/03/13 10:23:10;;;;;;;21.80;4.55;;;9.10;97.90;;;;;;5070231;28;20621;-60
2021/03/13 10:25:39;;;;;;;13.85;2.70;;;8.90;98.00;;;;;;5070348;28;20051;-59
2021/03/13 10:28:14;;;;;;;16.15;3.58;;;8.90;99.10;;;;;;5070085;28;20117;-60
2021/03/13 10:30:45;;;;;;;18.58;3.42;;;8.80;99.20;;;;;;5070562;28;20044;-61
2021/03/13 10:33:11;;;;;;;19.08;3.15;;;8.90;98.80;;;;;;5070366;28;20036;-60
2021/03/13 10:35:38;;;;;;;16.27;3.08;;;8.90;98.70;;;;;;5070405;28;20048;-60
2021/03/13 10:38:15;;;;;;;16.25;2.90;;;8.80;98.60;;;;;;5070359;28;20044;-60
2021/03/13 10:40:46;;;;;;;13.90;2.78;;;8.70;98.60;;;;;;5070056;28;20045;-61
2021/03/13 10:43:12;;;;;;;11.32;2.42;;;8.60;97.90;;;;;;5070290;28;20082;-60
2021/03/13 10:45:38;;;;;;;21.80;3.38;;;8.60;98.90;;;;;;5070036;28;20051;-61
2021/03/13 10:48:09;;;;;;;19.40;2.80;;;8.50;98.50;;;;;;5070194;28;20044;-60
2021/03/13 10:50:36;;;;;;;16.98;3.58;;;8.30;99.90;;;;;;5069957;28;20047;-61
2021/03/13 10:53:34;;;;;;;15.10;3.28;;;7.80;99.90;;;;;;5087676;27;20047;-61
2021/03/13 10:56:09;;;;;;;13.82;2.97;;;7.70;99.90;;;;;;5133584;27;20176;-61
2021/03/13 10:58:38;;;;;;;21.30;3.58;;;7.80;99.90;;;;;;5133296;27;20103;-61
2021/03/13 11:01:05;;;;;;;23.75;4.75;;;7.80;99.90;;;;;;5133086;27;20049;-61
2021/03/13 11:03:32;;;;;;;18.92;3.50;;;7.80;99.90;;;;;;5133191;27;20043;-61
2021/03/13 11:05:58;;;;;;;12.07;2.85;;;7.80;99.90;;;;;;5131958;28;20051;-61
2021/03/13 11:08:28;;;;;;;17.50;2.90;;;7.90;99.90;;;;;;5133449;27;20543;-61
2021/03/13 11:10:56;;;;;;;11.63;2.25;;;7.70;99.90;;;;;;5137197;27;20043;-60
2021/03/13 11:13:22;;;;;;;8.45;1.80;;;7.50;99.90;;;;;;5137650;27;20043;-61
2021/03/13 11:15:48;;;;;;;15.75;2.45;;;7.50;99.90;;;;;;5137491;27;20066;-60
2021/03/13 11:18:15;;;;;;;15.50;2.42;;;7.70;99.90;;;;;;5137705;27;20043;-60
2021/03/13 11:20:42;;;;;;;13.25;2.55;;;7.70;99.90;;;;;;5137088;27;20045;-61
2021/03/13 11:23:08;;;;;;;13.48;2.97;;;7.80;99.90;;;;;;5137123;27;20043;-61
2021/03/13 11:25:34;;;;;;;15.93;2.80;;;7.80;99.90;;;;;;5137183;27;20438;-61
2021/03/13 11:28:00;;;;;;;12.23;2.10;;;7.90;99.90;;;;;;5136970;27;20070;-60
2021/03/13 11:30:26;;;;;;;17.52;2.40;;;7.90;99.90;;;;;;5137479;27;20468;-60
2021/03/13 11:32:52;;;;;;;8.55;2.45;;;7.90;99.90;;;;;;5137366;27;20126;-60
2021/03/13 11:35:19;;;;;;;14.80;2.25;;;8.00;99.60;;;;;;5136945;27;20365;-60
2021/03/13 11:37:49;;;;;;;15.38;2.75;;;8.10;98.80;;;;;;5136765;27;20063;-60
2021/03/13 11:40:16;;;;;;;11.27;1.90;;;8.30;99.90;;;;;;5136928;27;20084;-61
2021/03/13 11:42:42;;;;;;;15.48;2.70;;;8.40;98.70;;;;;;5136965;27;20053;-60
2021/03/13 11:45:13;;;;;;;9.75;2.20;;;8.40;98.80;;;;;;5135454;27;20047;-59
2021/03/13 11:47:39;;;;;;;17.30;2.97;;;8.30;98.10;;;;;;5136963;27;20388;-60
2021/03/13 11:50:08;;;;;;;9.05;1.80;;;8.30;97.50;;;;;;5136748;27;20042;-60
2021/03/13 11:52:34;;;;;;;17.05;2.70;;;8.30;97.60;;;;;;5136989;27;20043;-60
2021/03/13 11:55:00;;;;;;;14.38;2.70;;;8.30;98.50;;;;;;5136508;27;20134;-59
2021/03/13 11:57:26;;;;;;;9.00;2.13;;;8.20;98.20;;;;;;5136875;27;20528;-60
2021/03/13 11:59:51;;;;;;;12.30;2.60;;;8.30;99.80;;;;;;5136915;27;20423;-60
2021/03/13 12:02:17;;;;;;;5.22;1.67;;;8.60;99.50;;;;;;5136942;27;20039;-60
2021/03/13 12:04:44;;;;;;;18.42;2.65;;;8.60;96.50;;;;;;5136898;27;20047;-60
2021/03/13 12:07:11;;;;;;;9.02;2.10;;;8.70;96.90;;;;;;5136848;27;20039;-61
2021/03/13 12:09:37;;;;;;;12.35;1.80;;;8.60;97.50;;;;;;5136922;27;20039;-59
2021/03/13 12:12:06;;;;;;;15.00;2.50;;;8.70;98.00;;;;;;5136644;27;20043;-61
2021/03/13 12:14:32;;;;;;;7.53;2.00;;;8.60;96.10;;;;;;5135216;27;20126;-60
2021/03/13 12:16:58;;;;;;;10.43;2.03;;;8.60;96.40;;;;;;5136406;27;20043;-61
2021/03/13 12:19:24;;;;;;;10.60;2.47;;;8.50;95.90;;;;;;5136619;27;20051;-60
2021/03/13 12:21:50;;;;;;;6.68;2.20;;;8.60;96.10;;;;;;5135395;27;20047;-60
2021/03/13 12:24:16;;;;;;;12.40;2.20;;;8.60;97.10;;;;;;5136418;27;20135;-60
2021/03/13 12:26:43;;;;;;;13.20;2.53;;;8.50;95.50;;;;;;5136454;27;20130;-60
2021/03/13 12:29:09;;;;;;;7.97;1.73;;;8.20;98.50;;;;;;5136376;27;20047;-59
2021/03/13 12:31:34;;;;;;;10.00;2.08;;;8.10;99.90;;;;;;5135876;27;20099;-60
2021/03/13 12:34:00;;;;;;;10.35;2.13;;;8.10;98.10;;;;;;5136077;27;20042;-60
2021/03/13 12:36:26;;;;;;;10.45;1.92;;;8.10;97.40;;;;;;5135675;27;20473;-60
2021/03/13 12:38:52;;;;;;;14.73;2.70;;;8.20;98.60;;;;;;5136155;27;20397;-60
2021/03/13 12:41:17;;;;;;;10.77;2.72;;;8.30;98.40;;;;;;5135850;27;20037;-60
2021/03/13 12:43:43;;;;;;;15.20;2.17;;;8.10;99.00;;;;;;5136139;27;20126;-59
2021/03/13 12:46:14;;;;;;;12.15;2.90;;;7.90;99.90;;;;;;5135747;27;20082;-60
2021/03/13 12:48:42;;;;;;;11.23;2.47;;;7.70;99.90;;;;;;5135937;27;20048;-59
2021/03/13 12:51:07;;;;;;;19.63;3.03;;;7.60;99.90;;;;;;5135950;27;20043;-59
2021/03/13 12:53:33;;;;;;;16.05;3.00;;;7.80;99.90;;;;;;5135812;27;20050;-60
2021/03/13 12:55:59;;;;;;;10.88;2.63;;;8.00;99.90;;;;;;5135396;27;20043;-59
2021/03/13 12:58:24;;;;;;;8.30;1.70;;;8.20;99.90;;;;;;5136002;27;20047;-59